Aviation Digital Data Service (ADDS)

Output produced by METARs form (0031 UTC 01 November 2020)
found at http://www.aviationweather.gov/metar/data/
 
LFRN 010000Z AUTO 17007KT 8000 -RA FEW036/// BKN076/// OVC100/// ///CB 12/11 Q1016 BECMG BKN008
TAF LFRN 312300Z 0100/0124 17010KT 9999 BKN030 
     BECMG 0100/0102 BKN008 
     BECMG 0103/0106 21020G30KT 
     TEMPO 0102/0124 3000 RADZ BKN004 
     BECMG 0121/0124 21020G35KT